Aérodrome :
LOGIN :

S'inscrire | Disclaimer

   EN    FR    IT 

 










Légende :    VFR   VFR Marginal   IFR   IFR Intensif   IFR Très Intensif
Visi : 
Plafond : 
>= 8 km
>= 3000ft
5 à 8 km
1000 à 3000 ft
1500m à 5 km
500 à 1000 ft
800 à 1500m
200 à 500 ft
< 800m
< 200 ft
Symboles :   Orages  Brouillard  Fortes neiges  Fortes précipitations  Vent > 20 kt
SIGMETs :   Divers  Orages  Givrage  Turbulence  Onde Orograph.  Cendres Volcan.






- Altitude de l'aérodrome : 939 ft


LKKB - Kbely Air Base

DERNIER METAR :
  • 190700Z 28004KT 240V340 9999 FEW027 BKN100 24/17 Q1013 NOSIG

METARs EXPIRÉS :
  • 190600Z 24007KT CAVOK 23/17 Q1013 NOSIG
  • 190500Z 22008KT CAVOK 21/16 Q1012 NOSIG
  • 190400Z VRB02KT CAVOK 19/16 Q1012
  • 190300Z 16006KT CAVOK 19/16 Q1011

TAF TAF LKKB
Valide du 19 à 06h jusqu'au 20 à 06h UTC


190500Z 1906/2006 21008KT CAVOK
BECMG 1908/1910 26008KT
TEMPO 1907/1919 33012KT 8000 SHRA SCT040TCU
PROB30
TEMPO 1908/1919 33016G26KT 6000 TSRA SCT035CB
BECMG 2000/2002 VRB02KT



MET'MAP, la Météo Aéronautique d'un coup d'oeil ! - Copyright ORBIFLY Décembre 2007 - Disclaimer

ORBIFLY MET'MAP TEAM :

Programmation & Développement : Alexandra Zaïnal
Sur une idée originale de : Baudouin d'Aumeries
Soutien technique & logistique : Manuel Goepfert
Assistance : Marc-Olivier Méhu




SOURCES & CREDITS :

   NOAA